Sign in to follow this  
Guest r1y2m

Weather not downloading.

Recommended Posts

Have look at this for me.1. Log18:34:48: Downloading global weather data for 08/10/2007 9:04:48 PM (21Z) from Secondary Server...18:34:51: Saving weather to disk18:35:09: Download complete18:35:09: Populating weather stream with new data...18:35:09: Parsing line items*18:35:15: 7682 stations were scanned (4490 did not provide recent data) ????18:35:15: Weather stream fully populated with new data2. ASX weather for CYYT (notice date and time)CYYT 301150Z 00000KT 9000 FEW020 25/22 Q1013 RMK INTERPOLATED ????3. Real weather from NAVCANMETAR CYYT 082100Z 32022G30KT 3SM -RA BR OVC009 07/06 A2913 RERA RMK SF8 SLP870= I have been getting this all weekend.Is there a server problem?Or is something else on the go here.I do get the correct weather once in awhile if I refreshed enough times.ThanksBrian

Share this post


Link to post
Share on other sites
Help AVSIM continue to serve you!
Please donate today!

Create an account or sign in to comment

You need to be a member in order to leave a comment

Create an account

Sign up for a new account in our community. It's easy!

Register a new account

Sign in

Already have an account? Sign in here.

Sign In Now
Sign in to follow this